Time;durP1;ratioP1;P1;durP2;ratioP2;P2;SDS_P1;SDS_P2;PMS_P1;PMS_P2;Temp;Humidity;BMP_temperature;BMP_pressure;BME280_temperature;BME280_humidity;BME280_pressure;Samples;Min_cycle;Max_cycle;Signal;HPM_P1;HPM_P2
2023/05/22 00:01:59;;;;;;;;;16.25;15.75;;;;;-147.17;100.00;-15917.19;4987241;28;51764;-63
2023/05/22 00:04:28;;;;;;;;;16.00;15.50;;;;;-147.17;100.00;-15917.19;4969805;28;51448;-64
2023/05/22 00:06:54;;;;;;;;;19.00;19.00;;;;;-147.17;100.00;-15917.19;4987594;28;53653;-63
2023/05/22 00:09:20;;;;;;;;;14.00;13.50;;;;;-147.17;100.00;-15917.19;4987083;28;51159;-62
2023/05/22 00:11:45;;;;;;;;;19.50;19.50;;;;;-147.17;100.00;-15917.19;4987336;28;51815;-62
2023/05/22 00:14:12;;;;;;;;;16.50;14.75;;;;;-147.17;100.00;-15917.19;4987187;28;51298;-63
2023/05/22 00:16:38;;;;;;;;;15.75;15.00;;;;;-147.17;100.00;-15917.19;4986668;28;51113;-63
2023/05/22 00:19:04;;;;;;;;;15.50;14.75;;;;;-147.17;100.00;-15917.19;4985858;28;51679;-63
2023/05/22 00:21:33;;;;;;;;;17.00;17.00;;;;;-147.17;100.00;-15917.19;4986797;28;51642;-62
2023/05/22 00:24:00;;;;;;;;;17.25;16.25;;;;;-147.17;100.00;-15917.19;4986693;28;53530;-63
2023/05/22 00:26:25;;;;;;;;;18.00;18.00;;;;;-147.17;100.00;-15917.19;4987101;28;51284;-64
2023/05/22 00:28:50;;;;;;;;;15.25;12.75;;;;;-147.17;100.00;-15917.19;4986844;28;51359;-64
2023/05/22 00:31:16;;;;;;;;;18.50;16.50;;;;;-147.17;100.00;-15917.19;4987083;28;53677;-64
2023/05/22 00:33:41;;;;;;;;;17.25;16.75;;;;;-147.17;100.00;-15917.19;4986405;28;52662;-64
2023/05/22 00:36:07;;;;;;;;;17.25;16.75;;;;;-147.17;100.00;-15917.19;4986797;28;51384;-64
2023/05/22 00:38:35;;;;;;;;;18.00;17.50;;;;;-147.17;100.00;-15917.19;4987217;28;51359;-63
2023/05/22 00:41:02;;;;;;;;;16.50;15.50;;;;;-147.17;100.00;-15917.19;4969059;28;53896;-62
2023/05/22 00:43:28;;;;;;;;;17.25;15.75;;;;;-147.17;100.00;-15917.19;4969418;28;51269;-63
2023/05/22 00:45:53;;;;;;;;;15.00;13.75;;;;;-147.17;100.00;-15917.19;4987073;28;51271;-63
2023/05/22 00:48:20;;;;;;;;;17.75;16.25;;;;;-147.17;100.00;-15917.19;4986979;28;51249;-64
2023/05/22 00:50:46;;;;;;;;;18.25;17.50;;;;;-147.17;100.00;-15917.19;4986542;28;51432;-62
2023/05/22 00:53:12;;;;;;;;;16.50;15.50;;;;;-147.17;100.00;-15917.19;4986837;28;51295;-63
2023/05/22 00:55:38;;;;;;;;;16.75;16.00;;;;;-147.17;100.00;-15917.19;4986762;28;51165;-63
2023/05/22 00:58:06;;;;;;;;;18.50;17.00;;;;;-147.17;100.00;-15917.19;4986529;28;51484;-63
2023/05/22 01:00:33;;;;;;;;;18.50;17.50;;;;;-147.17;100.00;-15917.19;4985665;28;52931;-63
2023/05/22 01:03:00;;;;;;;;;18.50;16.50;;;;;-147.17;100.00;-15917.19;4986268;28;51502;-63
2023/05/22 01:05:25;;;;;;;;;15.75;14.75;;;;;-147.17;100.00;-15917.19;4986201;28;51346;-63
2023/05/22 01:07:52;;;;;;;;;17.75;14.75;;;;;-147.17;100.00;-15917.19;4986243;28;51126;-64
2023/05/22 01:10:18;;;;;;;;;14.50;13.75;;;;;-147.17;100.00;-15917.19;4986277;28;51358;-62
2023/05/22 01:12:46;;;;;;;;;14.50;13.75;;;;;-147.17;100.00;-15917.19;4986298;28;53427;-63
2023/05/22 01:15:42;;;;;;;;;17.75;17.25;;;;;-147.17;100.00;-15917.19;4985949;28;51228;-63
2023/05/22 01:18:30;;;;;;;;;14.75;14.75;;;;;-147.17;100.00;-15917.19;4984751;28;53224;-63
2023/05/22 01:21:12;;;;;;;;;14.25;14.25;;;;;-147.17;100.00;-15917.19;4985820;28;51790;-63
2023/05/22 01:23:53;;;;;;;;;15.50;15.50;;;;;-147.17;100.00;-15917.19;4986051;28;51229;-63
2023/05/22 01:26:41;;;;;;;;;15.00;14.25;;;;;-147.17;100.00;-15917.19;4985916;28;51370;-64
2023/05/22 01:29:29;;;;;;;;;16.25;15.00;;;;;-147.17;100.00;-15917.19;4986043;28;51183;-63
2023/05/22 01:31:57;;;;;;;;;12.75;12.75;;;;;-147.17;100.00;-15917.19;4985437;28;52099;-63
2023/05/22 01:34:25;;;;;;;;;15.50;15.00;;;;;-147.17;100.00;-15917.19;4986004;28;51372;-63
2023/05/22 01:36:52;;;;;;;;;16.50;16.00;;;;;-147.17;100.00;-15917.19;4985764;28;51145;-62
2023/05/22 01:39:18;;;;;;;;;15.25;14.50;;;;;-147.17;100.00;-15917.19;4985880;28;51158;-63
2023/05/22 01:41:43;;;;;;;;;14.75;13.75;;;;;-147.17;100.00;-15917.19;4986007;28;52130;-63
2023/05/22 01:44:08;;;;;;;;;16.00;15.00;;;;;-147.17;100.00;-15917.19;4985894;28;51352;-63
2023/05/22 01:46:34;;;;;;;;;16.50;16.00;;;;;-147.17;100.00;-15917.19;4986136;28;51766;-63
2023/05/22 01:48:59;;;;;;;;;16.00;16.00;;;;;-147.17;100.00;-15917.19;4983932;28;51367;-62
2023/05/22 01:51:38;;;;;;;;;15.25;15.00;;;;;-147.17;100.00;-15917.19;4986124;28;51854;-63
2023/05/22 01:54:18;;;;;;;;;17.75;15.25;;;;;-147.17;100.00;-15917.19;4985812;28;51248;-63
2023/05/22 01:56:54;;;;;;;;;15.75;15.25;;;;;-147.17;100.00;-15917.19;4985891;28;51309;-63
2023/05/22 01:59:24;;;;;;;;;14.75;12.50;;;;;-147.17;100.00;-15917.19;4985778;28;51377;-63
2023/05/22 02:01:51;;;;;;;;;14.75;14.75;;;;;-147.17;100.00;-15917.19;4985493;28;52058;-63
2023/05/22 02:04:20;;;;;;;;;17.50;16.50;;;;;-147.17;100.00;-15917.19;4985303;28;51399;-63
2023/05/22 02:06:46;;;;;;;;;13.00;13.00;;;;;-147.17;100.00;-15917.19;4967377;28;51208;-63
2023/05/22 02:09:14;;;;;;;;;16.50;16.00;;;;;-147.17;100.00;-15917.19;4985955;28;51359;-63
2023/05/22 02:11:41;;;;;;;;;14.25;13.75;;;;;-147.17;100.00;-15917.19;4985412;28;53468;-62
2023/05/22 02:14:07;;;;;;;;;13.00;13.00;;;;;-147.17;100.00;-15917.19;4985277;28;51162;-63
2023/05/22 02:16:33;;;;;;;;;11.75;11.75;;;;;-147.17;100.00;-15917.19;4985107;28;51327;-63
2023/05/22 02:19:06;;;;;;;;;14.25;13.25;;;;;-147.17;100.00;-15917.19;4985561;28;51190;-62
2023/05/22 02:21:33;;;;;;;;;15.75;14.75;;;;;-147.17;100.00;-15917.19;4983401;28;51871;-63
2023/05/22 02:23:58;;;;;;;;;15.25;15.00;;;;;-147.17;100.00;-15917.19;4984713;28;51153;-63
2023/05/22 02:26:24;;;;;;;;;14.50;14.25;;;;;-147.17;100.00;-15917.19;4985585;28;51274;-63
2023/05/22 02:28:49;;;;;;;;;18.25;17.00;;;;;-147.17;100.00;-15917.19;4985816;28;53706;-63
2023/05/22 02:31:16;;;;;;;;;16.25;14.75;;;;;-147.17;100.00;-15917.19;4967502;28;55981;-62
2023/05/22 02:33:42;;;;;;;;;14.25;13.25;;;;;-147.17;100.00;-15917.19;4985570;28;51129;-63
2023/05/22 02:36:09;;;;;;;;;17.50;17.50;;;;;-147.17;100.00;-15917.19;4985433;28;51109;-63
2023/05/22 02:38:35;;;;;;;;;14.00;13.00;;;;;-147.17;100.00;-15917.19;4968040;28;51342;-63
2023/05/22 02:41:01;;;;;;;;;14.00;13.25;;;;;-147.17;100.00;-15917.19;4983858;28;51735;-63
2023/05/22 02:43:26;;;;;;;;;14.25;14.25;;;;;-147.17;100.00;-15917.19;4985684;28;53090;-63
2023/05/22 02:45:52;;;;;;;;;14.00;13.00;;;;;-147.17;100.00;-15917.19;4985414;28;51250;-63
2023/05/22 02:48:17;;;;;;;;;14.00;14.00;;;;;-147.17;100.00;-15917.19;4985494;28;51427;-63
2023/05/22 02:50:43;;;;;;;;;14.50;14.25;;;;;-147.17;100.00;-15917.19;4984985;28;51893;-63
2023/05/22 02:53:08;;;;;;;;;14.00;13.25;;;;;-147.17;100.00;-15917.19;4985110;28;51267;-63
2023/05/22 02:55:34;;;;;;;;;19.50;18.25;;;;;-147.17;100.00;-15917.19;4985426;28;51367;-62
2023/05/22 02:57:59;;;;;;;;;13.75;13.75;;;;;-147.17;100.00;-15917.19;4985140;28;51097;-63
2023/05/22 03:00:24;;;;;;;;;16.00;12.75;;;;;-147.17;100.00;-15917.19;4986368;28;51697;-62
2023/05/22 03:02:50;;;;;;;;;13.75;13.50;;;;;-147.17;100.00;-15917.19;4988091;28;51128;-63
2023/05/22 03:05:16;;;;;;;;;14.25;14.00;;;;;-147.17;100.00;-15917.19;4988437;28;53290;-62
2023/05/22 03:07:42;;;;;;;;;15.75;15.75;;;;;-147.17;100.00;-15917.19;4988369;28;51206;-62
2023/05/22 03:10:07;;;;;;;;;18.25;17.50;;;;;-147.17;100.00;-15917.19;4987317;28;53532;-64
2023/05/22 03:12:32;;;;;;;;;15.50;15.25;;;;;-147.17;100.00;-15917.19;4988373;28;51201;-63
2023/05/22 03:14:58;;;;;;;;;19.25;17.75;;;;;-147.17;100.00;-15917.19;4988384;28;51330;-62
2023/05/22 03:17:23;;;;;;;;;21.25;18.50;;;;;-147.17;100.00;-15917.19;4988395;28;51075;-62
2023/05/22 03:19:48;;;;;;;;;18.25;14.50;;;;;-147.17;100.00;-15917.19;4987777;28;51146;-63
2023/05/22 03:22:14;;;;;;;;;16.50;15.75;;;;;-147.17;100.00;-15917.19;4988181;28;51268;-63
2023/05/22 03:24:39;;;;;;;;;19.25;15.50;;;;;-147.17;100.00;-15917.19;4988230;28;51189;-64
2023/05/22 03:27:04;;;;;;;;;16.75;15.00;;;;;-147.17;100.00;-15917.19;4988361;28;51174;-63
2023/05/22 03:29:30;;;;;;;;;16.50;15.75;;;;;-147.17;100.00;-15917.19;4987192;28;52165;-63
2023/05/22 03:31:56;;;;;;;;;20.25;16.50;;;;;-147.17;100.00;-15917.19;4987924;28;51349;-64
2023/05/22 03:34:26;;;;;;;;;16.00;16.00;;;;;-147.17;100.00;-15917.19;4988160;28;51163;-63
2023/05/22 03:36:51;;;;;;;;;17.00;15.25;;;;;-147.17;100.00;-15917.19;4988167;28;51272;-63
2023/05/22 03:39:17;;;;;;;;;15.50;14.50;;;;;-147.17;100.00;-15917.19;4987526;28;51140;-63
2023/05/22 03:41:42;;;;;;;;;17.50;16.75;;;;;-147.17;100.00;-15917.19;4988193;28;51315;-63
2023/05/22 03:44:07;;;;;;;;;13.50;13.50;;;;;-147.17;100.00;-15917.19;4987820;28;51059;-63
2023/05/22 03:46:33;;;;;;;;;15.00;15.00;;;;;-147.17;100.00;-15917.19;4969692;28;51619;-63
2023/05/22 03:48:58;;;;;;;;;16.75;16.50;;;;;-147.17;100.00;-15917.19;4987113;28;51999;-63
2023/05/22 03:51:23;;;;;;;;;13.50;13.50;;;;;-147.17;100.00;-15917.19;4987602;28;51234;-63
2023/05/22 03:53:49;;;;;;;;;17.50;16.75;;;;;-147.17;100.00;-15917.19;4987933;28;51145;-63
2023/05/22 03:56:14;;;;;;;;;17.00;16.00;;;;;-147.17;100.00;-15917.19;4987846;28;51393;-64
2023/05/22 03:58:39;;;;;;;;;20.00;19.75;;;;;-147.17;100.00;-15917.19;4987434;28;51896;-63
2023/05/22 04:01:05;;;;;;;;;17.25;15.50;;;;;-147.17;100.00;-15917.19;4969216;28;51222;-63
2023/05/22 04:03:30;;;;;;;;;17.50;17.00;;;;;-147.17;100.00;-15917.19;4987498;28;51113;-63
2023/05/22 04:05:57;;;;;;;;;15.50;15.25;;;;;-147.17;100.00;-15917.19;4987601;28;51178;-64
2023/05/22 04:08:22;;;;;;;;;14.75;14.25;;;;;-147.17;100.00;-15917.19;4987103;28;53624;-63
2023/05/22 04:10:48;;;;;;;;;16.25;15.00;;;;;-147.17;100.00;-15917.19;4986763;28;51228;-63
2023/05/22 04:13:14;;;;;;;;;19.25;18.50;;;;;-147.17;100.00;-15917.19;4969844;28;51389;-63
2023/05/22 04:15:45;;;;;;;;;17.75;16.00;;;;;-147.17;100.00;-15917.19;4986974;28;51340;-63
2023/05/22 04:18:11;;;;;;;;;15.75;15.75;;;;;-147.17;100.00;-15917.19;4986397;28;52706;-62
2023/05/22 04:20:36;;;;;;;;;18.25;17.50;;;;;-147.17;100.00;-15917.19;4987032;28;51304;-63
2023/05/22 04:23:02;;;;;;;;;15.50;15.25;;;;;-147.17;100.00;-15917.19;4986315;28;51323;-63
2023/05/22 04:25:28;;;;;;;;;15.50;14.25;;;;;-147.17;100.00;-15917.19;4987085;28;51255;-63
2023/05/22 04:27:54;;;;;;;;;21.75;18.50;;;;;-147.17;100.00;-15917.19;4985701;28;51255;-62
2023/05/22 04:30:20;;;;;;;;;16.50;16.25;;;;;-147.17;100.00;-15917.19;4987004;28;51382;-62
2023/05/22 04:32:46;;;;;;;;;18.00;17.25;;;;;-147.17;100.00;-15917.19;4986504;28;53364;-62
2023/05/22 04:35:11;;;;;;;;;18.75;16.00;;;;;-147.17;100.00;-15917.19;4987152;28;51154;-61
2023/05/22 04:37:41;;;;;;;;;19.00;19.00;;;;;-147.17;100.00;-15917.19;4986880;28;51558;-62
2023/05/22 04:40:08;;;;;;;;;19.00;18.00;;;;;-147.17;100.00;-15917.19;4986797;28;51105;-62
2023/05/22 04:42:34;;;;;;;;;17.25;17.00;;;;;-147.17;100.00;-15917.19;4986943;28;53813;-63
2023/05/22 04:45:00;;;;;;;;;20.00;19.00;;;;;-147.17;100.00;-15917.19;4986932;28;51287;-62
2023/05/22 04:47:27;;;;;;;;;23.00;20.75;;;;;-147.17;100.00;-15917.19;4986461;28;53298;-61
2023/05/22 04:49:53;;;;;;;;;20.00;19.25;;;;;-147.17;100.00;-15917.19;4986300;28;51178;-63
2023/05/22 04:52:20;;;;;;;;;23.75;18.75;;;;;-147.17;100.00;-15917.19;4986982;28;51278;-63
2023/05/22 04:54:45;;;;;;;;;18.25;17.25;;;;;-147.17;100.00;-15917.19;4986610;28;51263;-63
2023/05/22 04:57:11;;;;;;;;;14.00;13.50;;;;;-147.17;100.00;-15917.19;4986508;28;52725;-63
2023/05/22 04:59:40;;;;;;;;;20.25;19.00;;;;;-147.17;100.00;-15917.19;4986828;28;51245;-64
2023/05/22 05:02:05;;;;;;;;;17.50;17.00;;;;;-147.17;100.00;-15917.19;4986332;28;51255;-63
2023/05/22 05:04:32;;;;;;;;;17.00;16.50;;;;;-147.17;100.00;-15917.19;4986320;28;51406;-63
2023/05/22 05:06:57;;;;;;;;;26.00;24.25;;;;;-147.17;100.00;-15917.19;4986466;28;52100;-64
2023/05/22 05:09:23;;;;;;;;;20.25;19.00;;;;;-147.17;100.00;-15917.19;4986311;28;51161;-63
2023/05/22 05:11:49;;;;;;;;;19.25;15.25;;;;;-147.17;100.00;-15917.19;4986416;28;51239;-62
2023/05/22 05:14:16;;;;;;;;;18.00;17.75;;;;;-147.17;100.00;-15917.19;4969006;28;51336;-63
2023/05/22 05:16:41;;;;;;;;;20.00;19.50;;;;;-147.17;100.00;-15917.19;4985563;28;51164;-63
2023/05/22 05:19:06;;;;;;;;;21.75;20.25;;;;;-147.17;100.00;-15917.19;4986559;28;51131;-63
2023/05/22 05:21:32;;;;;;;;;18.25;17.00;;;;;-147.17;100.00;-15917.19;4985846;28;51427;-63
2023/05/22 05:23:57;;;;;;;;;17.75;17.75;;;;;-147.17;100.00;-15917.19;4986022;28;51237;-63
2023/05/22 05:26:22;;;;;;;;;18.25;18.00;;;;;-147.17;100.00;-15917.19;4985351;28;53802;-62
2023/05/22 05:28:49;;;;;;;;;18.25;16.50;;;;;-147.17;100.00;-15917.19;4986403;28;51175;-62
2023/05/22 05:31:14;;;;;;;;;20.75;20.00;;;;;-147.17;100.00;-15917.19;4984792;28;51155;-62
2023/05/22 05:33:40;;;;;;;;;22.00;21.75;;;;;-147.17;100.00;-15917.19;4986492;28;51144;-63
2023/05/22 05:36:05;;;;;;;;;21.75;21.00;;;;;-147.17;100.00;-15917.19;4985570;28;52895;-63
2023/05/22 05:38:31;;;;;;;;;19.00;18.00;;;;;-147.17;100.00;-15917.19;4985975;28;51166;-62
2023/05/22 05:40:56;;;;;;;;;12.50;12.25;;;;;-147.17;100.00;-15917.19;4985560;28;51241;-63
2023/05/22 05:43:24;;;;;;;;;17.00;16.00;;;;;-147.17;100.00;-15917.19;4986544;28;51260;-63
2023/05/22 05:45:49;;;;;;;;;16.75;16.75;;;;;-147.17;100.00;-15917.19;4985695;28;53122;-62
2023/05/22 05:48:14;;;;;;;;;15.25;15.00;;;;;-147.17;100.00;-15917.19;4985660;28;51160;-64
2023/05/22 05:50:40;;;;;;;;;15.00;15.00;;;;;-147.17;100.00;-15917.19;4968327;28;53670;-62
2023/05/22 05:53:07;;;;;;;;;20.00;16.75;;;;;-147.17;100.00;-15917.19;4986381;28;51226;-62
2023/05/22 05:55:32;;;;;;;;;19.75;19.00;;;;;-147.17;100.00;-15917.19;4985480;28;53203;-62
2023/05/22 05:57:58;;;;;;;;;18.50;18.00;;;;;-147.17;100.00;-15917.19;4985651;28;53226;-63
2023/05/22 06:00:23;;;;;;;;;17.25;16.00;;;;;-147.17;100.00;-15917.19;4983912;28;51123;-64
2023/05/22 06:02:48;;;;;;;;;18.50;18.00;;;;;-147.17;100.00;-15917.19;4984721;28;51271;-63
2023/05/22 06:05:16;;;;;;;;;19.50;19.50;;;;;-147.17;100.00;-15917.19;4985453;28;51383;-63
2023/05/22 06:07:42;;;;;;;;;17.50;17.25;;;;;-147.17;100.00;-15917.19;4985303;28;51191;-64
2023/05/22 06:10:09;;;;;;;;;17.00;15.75;;;;;-147.17;100.00;-15917.19;4985050;28;51192;-63
2023/05/22 06:12:36;;;;;;;;;17.75;16.75;;;;;-147.17;100.00;-15917.19;4985258;28;51398;-63
2023/05/22 06:15:03;;;;;;;;;17.50;17.50;;;;;-147.17;100.00;-15915.72;4984880;28;51763;-63
2023/05/22 06:17:29;;;;;;;;;17.75;17.00;;;;;-147.17;100.00;-15915.72;4984563;28;51215;-63
2023/05/22 06:19:54;;;;;;;;;17.00;16.50;;;;;-147.17;100.00;-15668.00;4985674;28;53546;-63
2023/05/22 06:22:20;;;;;;;;;15.75;15.75;;;;;-147.17;100.00;-15420.25;4985322;28;51255;-63
2023/05/22 06:24:45;;;;;;;;;18.00;17.00;;;;;-147.17;100.00;-14429.16;4985004;28;52713;-63
2023/05/22 06:27:10;;;;;;;;;15.25;15.00;;;;;-147.17;100.00;-13685.63;4985141;28;51203;-63
2023/05/22 06:29:36;;;;;;;;;15.00;14.00;;;;;-147.17;100.00;-12446.13;4984990;28;51229;-63
2023/05/22 06:32:01;;;;;;;;;15.00;14.00;;;;;-147.17;100.00;-11702.25;4985162;28;51707;-63
2023/05/22 06:34:26;;;;;;;;;17.75;16.50;;;;;-147.17;100.00;-10214.00;4969189;28;52961;-63
2023/05/22 06:36:52;;;;;;;;;15.50;15.50;;;;;-147.17;100.00;-9469.69;4988868;28;51232;-63
2023/05/22 06:39:17;;;;;;;;;18.25;16.00;;;;;-147.17;100.00;-8973.38;4988781;28;51220;-63
2023/05/22 06:41:43;;;;;;;;;15.50;15.00;;;;;-147.17;100.00;-8228.81;4988522;28;51155;-64
2023/05/22 06:44:09;;;;;;;;;17.25;16.50;;;;;-147.17;100.00;-6739.25;4988142;28;52853;-63
2023/05/22 06:46:34;;;;;;;;;16.33;15.67;;;;;-147.17;100.00;-5994.25;4988062;28;51109;-63
2023/05/22 06:49:00;;;;;;;;;18.00;17.67;;;;;-147.17;100.00;-4006.88;4988653;28;51227;-63
2023/05/22 06:51:25;;;;;;;;;15.75;15.50;;;;;-147.17;100.00;-1023.88;4988544;28;51259;-63
2023/05/22 06:53:51;;;;;;;;;16.00;15.33;;;;;-147.17;100.00;468.50;4988224;28;51234;-64
2023/05/22 06:56:32;;;;;;;;;18.00;17.00;;;;;-147.17;100.00;3703.94;5066935;27;51155;-64
2023/05/22 06:58:57;;;;;;;;;19.00;19.00;;;;;-147.17;100.00;8188.25;5060816;28;51636;-63
2023/05/22 07:01:23;;;;;;;;;17.33;16.33;;;;;-147.17;100.00;9185.47;5061465;28;51175;-64
2023/05/22 07:03:48;;;;;;;;;16.00;15.33;;;;;-147.17;100.00;9185.47;5061188;27;51420;-64
2023/05/22 07:06:14;;;;;;;;;17.00;15.67;;;;;-147.17;100.00;7689.75;5061064;28;51116;-63
2023/05/22 07:08:39;;;;;;;;;15.67;15.00;;;;;-147.17;100.00;8437.53;5060202;28;51227;-63
2023/05/22 07:11:06;;;;;;;;;16.33;16.33;;;;;-147.17;100.00;14175.44;5060914;28;51121;-63
2023/05/22 07:13:31;;;;;;;;;17.00;16.00;;;;;-147.17;100.00;14425.13;5060816;28;52766;-63
2023/05/22 07:15:57;;;;;;;;;18.00;17.33;;;;;-147.17;100.00;14924.50;5061177;28;51259;-63
2023/05/22 07:18:22;;;;;;;;;17.67;16.67;;;;;-147.17;100.00;20922.09;5061222;28;51567;-63
2023/05/22 07:20:47;;;;;;;;;18.00;18.00;;;;;-147.17;100.00;25140.78;5060707;28;51270;-63
2023/05/22 07:23:13;;;;;;;;;17.00;16.67;;;;;-147.17;100.00;24726.13;5060935;28;51138;-64
2023/05/22 07:25:38;;;;;;;;;16.67;15.33;;;;;-147.17;100.00;24483.63;5059948;28;53430;-63
2023/05/22 07:28:07;;;;;;;;;17.33;17.33;;;;;-147.17;100.00;22886.22;5060817;28;51720;-63
2023/05/22 07:30:37;;;;;;;;;15.67;14.00;;;;;-147.17;100.00;25387.25;5059562;28;51544;-63
2023/05/22 07:33:02;;;;;;;;;19.50;18.25;;;;;-147.17;100.00;25993.69;5059931;28;52923;-63
2023/05/22 07:35:28;;;;;;;;;16.00;16.00;;;;;-147.17;100.00;27868.34;5060602;28;51167;-63
2023/05/22 07:37:53;;;;;;;;;19.33;17.33;;;;;-147.17;100.00;30237.44;5058974;28;51501;-63
2023/05/22 07:40:18;;;;;;;;;16.00;16.00;;;;;-147.17;100.00;29364.03;5061916;28;51317;-63
2023/05/22 07:42:44;;;;;;;;;17.00;15.00;;;;;-147.17;100.00;31232.47;5060826;28;52193;-63
2023/05/22 07:45:09;;;;;;;;;15.33;14.00;;;;;-147.17;100.00;34930.88;5060653;28;51115;-63
2023/05/22 07:47:35;;;;;;;;;17.67;16.67;;;;;-147.17;100.00;33772.19;5058418;28;51319;-63
2023/05/22 07:50:03;;;;;;;;;17.67;17.67;;;;;-147.17;100.00;33393.88;5061380;28;51225;-63
2023/05/22 07:52:28;;;;;;;;;14.67;14.00;;;;;-147.17;100.00;33254.72;5059618;28;51278;-63
2023/05/22 07:54:54;;;;;;;;;17.67;17.00;;;;;-147.17;100.00;34056.44;5067911;27;51254;-63
2023/05/22 07:57:19;;;;;;;;;17.33;16.00;;;;;-147.17;100.00;35668.25;5079876;27;58666;-63
2023/05/22 07:59:44;;;;;;;;;18.33;17.33;;;;;-147.17;100.00;37363.13;5081870;27;51285;-63
2023/05/22 08:02:10;;;;;;;;;18.00;17.67;;;;;-147.17;100.00;37414.13;5080258;27;52546;-63
2023/05/22 08:04:35;;;;;;;;;16.00;15.00;;;;;-147.17;100.00;37702.56;5063563;27;53801;-63
2023/05/22 08:07:01;;;;;;;;;15.33;15.33;;;;;-147.17;100.00;37779.09;5072165;27;53210;-63
2023/05/22 08:09:26;;;;;;;;;20.50;19.75;;;;;-147.17;100.00;39200.03;5067418;28;51198;-63
2023/05/22 08:11:51;;;;;;;;;20.00;19.25;;;;;-147.17;100.00;39080.31;5064988;28;53135;-63
2023/05/22 08:14:17;;;;;;;;;14.67;14.67;;;;;-147.17;100.00;38051.84;5067003;28;60794;-63
2023/05/22 08:16:42;;;;;;;;;19.00;19.00;;;;;-147.17;100.00;37335.66;5066992;28;51708;-63
2023/05/22 08:19:08;;;;;;;;;18.33;17.00;;;;;-147.17;100.00;38120.53;5067564;28;53165;-62
2023/05/22 08:21:34;;;;;;;;;19.67;19.00;;;;;-147.17;100.00;37718.25;5066153;28;53309;-63
2023/05/22 08:24:00;;;;;;;;;17.00;17.00;;;;;-147.17;100.00;38648.47;5067103;28;51338;-62
2023/05/22 08:26:26;;;;;;;;;18.00;17.67;;;;;-147.17;100.00;38040.09;5066982;28;51377;-63
2023/05/22 08:28:51;;;;;;;;;21.00;19.00;;;;;-147.17;100.00;37594.66;5067913;28;53246;-63
2023/05/22 08:31:16;;;;;;;;;19.33;19.33;;;;;-147.17;100.00;37641.75;5066584;28;51458;-63
2023/05/22 08:33:42;;;;;;;;;15.00;14.33;;;;;-147.17;100.00;36752.94;5066560;28;51238;-63
2023/05/22 08:36:07;;;;;;;;;19.67;19.67;;;;;-147.17;100.00;37041.34;5044206;28;51219;-62
2023/05/22 08:38:32;;;;;;;;;20.00;18.67;;;;;-147.17;100.00;36191.94;5067455;28;51326;-62
2023/05/22 08:40:58;;;;;;;;;16.33;16.00;;;;;-147.17;100.00;36258.63;5066163;28;51254;-62
2023/05/22 08:43:24;;;;;;;;;21.67;19.67;;;;;-147.17;100.00;37204.19;5066341;28;51211;-64
2023/05/22 08:45:56;;;;;;;;;19.33;17.33;;;;;-147.17;100.00;37306.22;5065405;28;51178;-62
2023/05/22 08:48:23;;;;;;;;;18.67;17.00;;;;;-147.17;100.00;37043.31;5066664;28;51368;-64
2023/05/22 08:50:56;;;;;;;;;17.33;16.67;;;;;-147.17;100.00;37612.31;5066217;28;52570;-64
2023/05/22 08:53:26;;;;;;;;;17.33;17.00;;;;;-147.17;100.00;37753.59;5066117;28;51274;-64
2023/05/22 08:55:52;;;;;;;;;20.25;20.00;;;;;-147.17;100.00;37777.13;5066559;28;51238;-64
2023/05/22 08:58:18;;;;;;;;;17.67;17.67;;;;;-147.17;100.00;38004.75;5065618;28;51431;-63
2023/05/22 09:00:44;;;;;;;;;17.00;17.00;;;;;-147.17;100.00;39058.72;5065411;28;57414;-63
2023/05/22 09:03:12;;;;;;;;;15.33;14.67;;;;;-147.17;100.00;39033.19;5066157;28;51191;-64
2023/05/22 09:05:39;;;;;;;;;18.00;16.00;;;;;-147.17;100.00;39249.13;5065811;28;52702;-64
2023/05/22 09:08:06;;;;;;;;;17.33;17.33;;;;;-147.17;100.00;39072.44;5066242;28;51405;-64
2023/05/22 09:10:32;;;;;;;;;16.00;16.00;;;;;-147.17;100.00;39097.97;5065694;28;52713;-64
2023/05/22 09:13:10;;;;;;;;;17.00;17.00;;;;;-147.17;100.00;39131.34;5066431;28;51175;-63
2023/05/22 09:15:36;;;;;;;;;15.33;14.33;;;;;-147.17;100.00;39033.19;5065258;28;51199;-63
2023/05/22 09:18:03;;;;;;;;;23.00;21.33;;;;;-147.17;100.00;39743.84;5064980;28;51570;-64
2023/05/22 09:20:28;;;;;;;;;18.67;17.67;;;;;-147.17;100.00;39724.19;5042647;28;51403;-62
2023/05/22 09:22:54;;;;;;;;;17.33;16.33;;;;;-147.17;100.00;39492.53;5065430;28;51138;-63
2023/05/22 09:25:20;;;;;;;;;17.00;17.00;;;;;-147.17;100.00;39940.16;5065296;28;51178;-63
2023/05/22 09:27:46;;;;;;;;;20.00;18.67;;;;;-147.17;100.00;39682.97;5065387;28;53330;-62
2023/05/22 09:30:16;;;;;;;;;18.67;17.67;;;;;-147.17;100.00;39119.56;5065135;28;52834;-63
2023/05/22 09:32:41;;;;;;;;;18.00;17.67;;;;;-147.17;100.00;39125.44;5064813;28;51280;-63
2023/05/22 09:35:07;;;;;;;;;18.33;17.67;;;;;-147.17;100.00;39453.28;5065412;28;51171;-64
2023/05/22 09:37:37;;;;;;;;;17.00;16.67;;;;;-147.17;100.00;38876.16;5066106;28;51267;-63
2023/05/22 09:40:04;;;;;;;;;14.00;13.00;;;;;-147.17;100.00;39066.56;5065213;28;52595;-62
2023/05/22 09:42:32;;;;;;;;;19.00;18.00;;;;;-147.17;100.00;39298.19;5065319;28;51156;-62
2023/05/22 09:45:02;;;;;;;;;17.67;17.33;;;;;-147.17;100.00;40109.03;5065583;28;53461;-63
2023/05/22 09:47:27;;;;;;;;;18.00;16.33;;;;;-147.17;100.00;40354.47;5065335;28;51380;-64
2023/05/22 09:49:56;;;;;;;;;16.33;15.33;;;;;-147.17;100.00;40211.13;5066000;28;51476;-64
2023/05/22 09:52:23;;;;;;;;;16.00;15.00;;;;;-147.17;100.00;40819.84;5064495;28;51300;-63
2023/05/22 09:54:54;;;;;;;;;15.75;15.75;;;;;-147.17;100.00;41259.75;5065663;28;51284;-64
2023/05/22 09:57:21;;;;;;;;;19.33;18.00;;;;;-147.17;100.00;40696.13;5065114;28;51139;-63
2023/05/22 09:59:53;;;;;;;;;26.75;24.50;;;;;-147.17;100.00;39633.88;5064934;28;51199;-63
2023/05/22 10:02:23;;;;;;;;;18.00;17.33;;;;;-147.17;100.00;39592.66;5064110;28;51393;-63
2023/05/22 10:04:50;;;;;;;;;20.50;20.50;;;;;-147.17;100.00;39496.47;5063961;28;51591;-62
2023/05/22 10:07:22;;;;;;;;;19.00;18.67;;;;;-147.17;100.00;40167.91;5065225;28;51204;-63
2023/05/22 10:09:58;;;;;;;;;21.00;20.50;;;;;-147.17;100.00;39447.38;5064843;28;51788;-62
2023/05/22 10:12:25;;;;;;;;;17.67;15.67;;;;;-147.17;100.00;38681.84;5061438;27;51282;-64
2023/05/22 10:14:52;;;;;;;;;16.33;16.00;;;;;-147.17;100.00;39985.31;5063973;28;51426;-63
2023/05/22 10:17:19;;;;;;;;;18.00;17.00;;;;;-147.17;100.00;38797.66;5064739;28;51234;-64
2023/05/22 10:19:45;;;;;;;;;19.00;18.00;;;;;-147.17;100.00;39088.16;5063988;28;51962;-64
2023/05/22 10:22:19;;;;;;;;;19.33;18.33;;;;;-147.17;100.00;40495.84;5064763;28;51220;-63
2023/05/22 10:24:46;;;;;;;;;17.67;17.67;;;;;-147.17;100.00;41014.28;5046671;28;51277;-63
2023/05/22 10:27:12;;;;;;;;;18.67;17.67;;;;;-147.17;100.00;41181.22;5064982;28;53450;-64
2023/05/22 10:29:57;;;;;;;;;18.33;17.33;;;;;-147.17;100.00;40843.41;5063593;28;51219;-63
2023/05/22 10:32:44;;;;;;;;;17.33;17.33;;;;;-147.17;100.00;39720.28;5064426;28;51253;-64
2023/05/22 10:35:18;;;;;;;;;16.50;15.75;;;;;-147.17;100.00;39547.50;5065538;28;51164;-64
2023/05/22 10:37:53;;;;;;;;;20.50;19.50;;;;;-147.17;100.00;40548.84;5064912;28;51221;-64
2023/05/22 10:40:33;;;;;;;;;18.25;18.25;;;;;-147.17;100.00;41336.38;5064107;28;51294;-64
2023/05/22 10:43:01;;;;;;;;;20.33;17.67;;;;;-147.17;100.00;41827.41;5045831;28;53192;-64
2023/05/22 10:45:27;;;;;;;;;21.00;20.67;;;;;-147.17;100.00;41984.56;5064329;28;51280;-64
2023/05/22 10:48:11;;;;;;;;;19.67;19.00;;;;;-147.17;100.00;41874.56;5064100;28;51279;-63
2023/05/22 10:50:37;;;;;;;;;19.67;18.67;;;;;-147.17;100.00;41703.66;5064138;28;51198;-63